Historique des mesures à Cassis (13260), France
Quotidien Résumé Mars 2, 2018 Unités:  Métrique    US   Métrique/US
« Précédent (Jour)
Suivant (Jour) »
Quotidien Hebdomadaire Mensuel Annuel Période au choix
  Maximum: Minimum: Moyenne:
Température: TemperatureC °C 6.2 °C 9.2 °C
Point de rosée: DewpointC °C 2.0 °C 4.2 °C
Humidité: Humidity % 55 % 68 %
Vitesse du vent: 0 km/h 0 km/h 17.2 km/h
Rafales: 0 km/h - -
Vent:- - SSW
Pression: PressurehPa hPa 985.0 hPa -
Précipitations: 4.1 mm    
Historical Graphs
 
 
Mesures pour : Mars 2, 2018
Heure Temperature Point de rosée Pression Vent Vitesse du vent Rafales Humidité Pluie (par heure) Conditions
TemperatureC °C DewpointC °C PressurehPa hPa Calm     Humidity % HourlyPrecipMM mm SoftwareType W/m2
00:12 9.2 °C 5.5 °C 989.7 hPa ESE 19.6 km/h 20.3 km/h 78 % 0.0 mm open2300-1.11 W/m2
01:12 9.4 °C 5.2 °C 989.1 hPa ESE 27.7 km/h 27.7 km/h 75 % 0.0 mm open2300-1.11 W/m2
02:12 9.8 °C 5.6 °C 987.7 hPa SE 15.6 km/h 15.6 km/h 75 % 0.0 mm open2300-1.11 W/m2
04:12 8.6 °C 5.8 °C 986.0 hPa ESE 17.9 km/h 17.9 km/h 83 % 1.5 mm open2300-1.11 W/m2
05:12 8.8 °C 5.9 °C 985.3 hPa SE 14 km/h 23 km/h 82 % 0.5 mm open2300-1.11 W/m2
06:12 9.3 °C 6.2 °C 985.0 hPa ESE 29 km/h 29 km/h 81 % 0.0 mm open2300-1.11 W/m2
07:12 9.3 °C 6.2 °C 986.0 hPa East 8.9 km/h 11.6 km/h 81 % 0.0 mm open2300-1.11 W/m2
08:12 7.3 °C 4.3 °C 989.1 hPa WNW 57.9 km/h 106.7 km/h 81 % 0.0 mm open2300-1.11 W/m2
09:12 6.2 °C 3.5 °C 991.1 hPa NNE 26.7 km/h 47.3 km/h 83 % 1.0 mm open2300-1.11 W/m2
10:12 7.2 °C 4.2 °C 992.4 hPa NW 18.7 km/h 30.1 km/h 81 % 0.5 mm open2300-1.11 W/m2
11:12 9.3 °C 5.2 °C 993.8 hPa NW 7.6 km/h 26.2 km/h 76 % 0.0 mm open2300-1.11 W/m2
12:12 10.8 °C 5.8 °C 994.1 hPa WSW 25.4 km/h 25.4 km/h 71 % 0.0 mm open2300-1.11 W/m2
13:12 11.4 °C 5.0 °C 994.8 hPa WSW 49.2 km/h 49.2 km/h 65 % 0.0 mm open2300-1.11 W/m2
14:12 12.4 °C 4.3 °C 994.8 hPa NW 23 km/h 58.6 km/h 58 % 0.0 mm open2300-1.11 W/m2
15:12 12.6 °C 4.3 °C 995.5 hPa WNW 42.2 km/h 44.1 km/h 57 % 0.0 mm open2300-1.11 W/m2
16:12 12.7 °C 4.1 °C 995.5 hPa WNW 5.6 km/h 29 km/h 56 % 0.0 mm open2300-1.11 W/m2
17:12 12.4 °C 3.6 °C 996.5 hPa WSW 23 km/h 23 km/h 55 % 0.0 mm open2300-1.11 W/m2
18:12 11.1 °C 3.1 °C 996.5 hPa Calm   8 km/h 58 % 0.0 mm open2300-1.11 W/m2
19:12 9.6 °C 2.9 °C 996.8 hPa Calm     63 % 0.0 mm open2300-1.11 W/m2
20:12 8.4 °C 2.4 °C 996.2 hPa Calm   2.9 km/h 66 % 0.0 mm open2300-1.11 W/m2
21:12 8.2 °C 2.0 °C 995.8 hPa NNW 2.3 km/h 2.9 km/h 65 % 0.0 mm open2300-1.11 W/m2
22:12 8.2 °C 2.2 °C 995.8 hPa Calm   3.4 km/h 66 % 0.0 mm open2300-1.11 W/m2
23:12 8.6 °C 2.6 °C 994.8 hPa Calm     66 % 0.0 mm open2300-1.11 W/m2
Observations météo à CASSIS
WU-History script by Weather Underground - 1 mb